sensor_id;sensor_type;location;lat;lon;timestamp;temperature;humidity
24802;DHT22;12898;50.520;12.152;2023-08-24T00:01:32;13.70;99.90
24802;DHT22;12898;50.520;12.152;2023-08-24T00:03:58;13.70;99.90
24802;DHT22;12898;50.520;12.152;2023-08-24T00:06:23;13.60;99.90
24802;DHT22;12898;50.520;12.152;2023-08-24T00:08:49;13.60;99.90
24802;DHT22;12898;50.520;12.152;2023-08-24T00:11:15;13.50;99.90
24802;DHT22;12898;50.520;12.152;2023-08-24T00:13:42;13.50;99.90
24802;DHT22;12898;50.520;12.152;2023-08-24T00:16:14;13.50;99.90
24802;DHT22;12898;50.520;12.152;2023-08-24T00:18:41;13.50;99.90
24802;DHT22;12898;50.520;12.152;2023-08-24T00:21:08;13.50;99.90
24802;DHT22;12898;50.520;12.152;2023-08-24T00:23:33;13.50;99.90
24802;DHT22;12898;50.520;12.152;2023-08-24T00:25:59;13.40;99.90
24802;DHT22;12898;50.520;12.152;2023-08-24T00:28:26;13.40;99.90
24802;DHT22;12898;50.520;12.152;2023-08-24T00:30:51;13.40;99.90
24802;DHT22;12898;50.520;12.152;2023-08-24T00:33:17;13.40;99.90
24802;DHT22;12898;50.520;12.152;2023-08-24T00:35:43;13.30;99.90
24802;DHT22;12898;50.520;12.152;2023-08-24T00:38:09;13.30;99.90
24802;DHT22;12898;50.520;12.152;2023-08-24T00:40:34;13.20;99.90
24802;DHT22;12898;50.520;12.152;2023-08-24T00:43:00;13.20;99.90
24802;DHT22;12898;50.520;12.152;2023-08-24T00:45:26;13.20;99.90
24802;DHT22;12898;50.520;12.152;2023-08-24T00:47:52;13.20;99.90
24802;DHT22;12898;50.520;12.152;2023-08-24T00:50:18;13.10;99.90
24802;DHT22;12898;50.520;12.152;2023-08-24T00:52:46;13.10;99.90
24802;DHT22;12898;50.520;12.152;2023-08-24T00:55:13;13.10;99.90
24802;DHT22;12898;50.520;12.152;2023-08-24T00:57:39;13.10;99.90
24802;DHT22;12898;50.520;12.152;2023-08-24T01:00:06;13.10;99.90
24802;DHT22;12898;50.520;12.152;2023-08-24T01:02:37;13.10;99.90
24802;DHT22;12898;50.520;12.152;2023-08-24T01:05:03;13.10;99.90
24802;DHT22;12898;50.520;12.152;2023-08-24T01:07:31;13.00;99.90
24802;DHT22;12898;50.520;12.152;2023-08-24T01:09:58;13.00;99.90
24802;DHT22;12898;50.520;12.152;2023-08-24T01:15:43;13.00;99.90
24802;DHT22;12898;50.520;12.152;2023-08-24T01:18:22;13.00;99.90
24802;DHT22;12898;50.520;12.152;2023-08-24T01:20:52;12.90;99.90
24802;DHT22;12898;50.520;12.152;2023-08-24T01:23:42;12.90;99.90
24802;DHT22;12898;50.520;12.152;2023-08-24T01:26:17;12.90;99.90
24802;DHT22;12898;50.520;12.152;2023-08-24T01:28:45;12.80;99.90
24802;DHT22;12898;50.520;12.152;2023-08-24T01:31:16;12.90;99.90
24802;DHT22;12898;50.520;12.152;2023-08-24T01:33:43;12.80;99.90
24802;DHT22;12898;50.520;12.152;2023-08-24T01:36:12;12.80;99.90
24802;DHT22;12898;50.520;12.152;2023-08-24T01:38:39;12.80;99.90
24802;DHT22;12898;50.520;12.152;2023-08-24T01:41:21;12.80;99.90
24802;DHT22;12898;50.520;12.152;2023-08-24T01:43:52;12.80;99.90
24802;DHT22;12898;50.520;12.152;2023-08-24T01:46:20;12.80;99.90
24802;DHT22;12898;50.520;12.152;2023-08-24T01:48:47;12.80;99.90
24802;DHT22;12898;50.520;12.152;2023-08-24T01:51:13;12.80;99.90
24802;DHT22;12898;50.520;12.152;2023-08-24T01:53:40;12.80;99.90
24802;DHT22;12898;50.520;12.152;2023-08-24T01:56:15;12.70;99.90
24802;DHT22;12898;50.520;12.152;2023-08-24T01:58:41;12.80;99.90
24802;DHT22;12898;50.520;12.152;2023-08-24T02:01:08;12.80;99.90
24802;DHT22;12898;50.520;12.152;2023-08-24T02:03:34;12.70;99.90
24802;DHT22;12898;50.520;12.152;2023-08-24T02:06:00;12.70;99.90
24802;DHT22;12898;50.520;12.152;2023-08-24T02:08:25;12.70;99.90
24802;DHT22;12898;50.520;12.152;2023-08-24T02:10:51;12.70;99.90
24802;DHT22;12898;50.520;12.152;2023-08-24T02:13:17;12.70;99.90
24802;DHT22;12898;50.520;12.152;2023-08-24T02:15:42;12.60;99.90
24802;DHT22;12898;50.520;12.152;2023-08-24T02:18:08;12.60;99.90
24802;DHT22;12898;50.520;12.152;2023-08-24T02:20:37;12.60;99.90
24802;DHT22;12898;50.520;12.152;2023-08-24T02:23:04;12.60;99.90
24802;DHT22;12898;50.520;12.152;2023-08-24T02:25:30;12.50;99.90
24802;DHT22;12898;50.520;12.152;2023-08-24T02:27:56;12.50;99.90
24802;DHT22;12898;50.520;12.152;2023-08-24T02:30:21;12.50;99.90
24802;DHT22;12898;50.520;12.152;2023-08-24T02:32:47;12.50;99.90
24802;DHT22;12898;50.520;12.152;2023-08-24T02:35:14;12.50;99.90
24802;DHT22;12898;50.520;12.152;2023-08-24T02:37:39;12.50;99.90
24802;DHT22;12898;50.520;12.152;2023-08-24T02:40:05;12.40;99.90
24802;DHT22;12898;50.520;12.152;2023-08-24T02:42:32;12.40;99.90
24802;DHT22;12898;50.520;12.152;2023-08-24T02:44:58;12.40;99.90
24802;DHT22;12898;50.520;12.152;2023-08-24T02:47:24;12.40;99.90
24802;DHT22;12898;50.520;12.152;2023-08-24T02:49:49;12.40;99.90
24802;DHT22;12898;50.520;12.152;2023-08-24T02:52:15;12.40;99.90
24802;DHT22;12898;50.520;12.152;2023-08-24T02:54:41;12.30;99.90
24802;DHT22;12898;50.520;12.152;2023-08-24T02:57:07;12.30;99.90
24802;DHT22;12898;50.520;12.152;2023-08-24T02:59:32;12.30;99.90
24802;DHT22;12898;50.520;12.152;2023-08-24T03:01:58;12.30;99.90
24802;DHT22;12898;50.520;12.152;2023-08-24T03:04:24;12.30;99.90
24802;DHT22;12898;50.520;12.152;2023-08-24T03:06:49;12.20;99.90
24802;DHT22;12898;50.520;12.152;2023-08-24T03:09:15;12.20;99.90
24802;DHT22;12898;50.520;12.152;2023-08-24T03:11:41;12.20;99.90
24802;DHT22;12898;50.520;12.152;2023-08-24T03:14:06;12.20;99.90
24802;DHT22;12898;50.520;12.152;2023-08-24T03:16:32;12.10;99.90
24802;DHT22;12898;50.520;12.152;2023-08-24T03:18:58;12.20;99.90
24802;DHT22;12898;50.520;12.152;2023-08-24T03:21:24;12.10;99.90
24802;DHT22;12898;50.520;12.152;2023-08-24T03:23:49;12.20;99.90
24802;DHT22;12898;50.520;12.152;2023-08-24T03:26:15;12.10;99.90
24802;DHT22;12898;50.520;12.152;2023-08-24T03:28:45;12.10;99.90
24802;DHT22;12898;50.520;12.152;2023-08-24T03:31:10;12.10;99.90
24802;DHT22;12898;50.520;12.152;2023-08-24T03:33:36;12.00;99.90
24802;DHT22;12898;50.520;12.152;2023-08-24T03:36:02;12.00;99.90
24802;DHT22;12898;50.520;12.152;2023-08-24T03:38:28;12.00;99.90
24802;DHT22;12898;50.520;12.152;2023-08-24T03:41:03;12.00;99.90
24802;DHT22;12898;50.520;12.152;2023-08-24T03:43:33;11.90;99.90
24802;DHT22;12898;50.520;12.152;2023-08-24T03:46:00;11.90;99.90
24802;DHT22;12898;50.520;12.152;2023-08-24T03:48:27;11.90;99.90
24802;DHT22;12898;50.520;12.152;2023-08-24T03:50:56;11.90;99.90
24802;DHT22;12898;50.520;12.152;2023-08-24T03:53:23;11.90;99.90
24802;DHT22;12898;50.520;12.152;2023-08-24T03:55:53;11.90;99.90
24802;DHT22;12898;50.520;12.152;2023-08-24T03:58:19;11.90;99.90
24802;DHT22;12898;50.520;12.152;2023-08-24T04:00:46;11.90;99.90
24802;DHT22;12898;50.520;12.152;2023-08-24T04:03:12;11.90;99.90
24802;DHT22;12898;50.520;12.152;2023-08-24T04:05:38;11.90;99.90
24802;DHT22;12898;50.520;12.152;2023-08-24T04:08:03;11.90;99.90
24802;DHT22;12898;50.520;12.152;2023-08-24T04:10:30;11.90;99.90
24802;DHT22;12898;50.520;12.152;2023-08-24T04:12:56;11.90;99.90
24802;DHT22;12898;50.520;12.152;2023-08-24T04:15:22;11.90;99.90
24802;DHT22;12898;50.520;12.152;2023-08-24T04:17:48;11.90;99.90
24802;DHT22;12898;50.520;12.152;2023-08-24T04:20:14;11.90;99.90
24802;DHT22;12898;50.520;12.152;2023-08-24T04:22:40;11.90;99.90
24802;DHT22;12898;50.520;12.152;2023-08-24T04:25:06;11.90;99.90
24802;DHT22;12898;50.520;12.152;2023-08-24T04:27:32;11.90;99.90
24802;DHT22;12898;50.520;12.152;2023-08-24T04:29:58;11.90;99.90
24802;DHT22;12898;50.520;12.152;2023-08-24T04:32:24;11.90;99.90
24802;DHT22;12898;50.520;12.152;2023-08-24T04:34:50;11.90;99.90
24802;DHT22;12898;50.520;12.152;2023-08-24T04:37:15;11.90;99.90
24802;DHT22;12898;50.520;12.152;2023-08-24T04:39:41;12.00;99.90
24802;DHT22;12898;50.520;12.152;2023-08-24T04:42:07;12.00;99.90
24802;DHT22;12898;50.520;12.152;2023-08-24T04:44:33;12.10;99.90
24802;DHT22;12898;50.520;12.152;2023-08-24T04:46:59;12.10;99.90
24802;DHT22;12898;50.520;12.152;2023-08-24T04:49:24;12.20;99.90
24802;DHT22;12898;50.520;12.152;2023-08-24T04:51:50;12.20;99.90
24802;DHT22;12898;50.520;12.152;2023-08-24T04:54:16;12.30;99.90
24802;DHT22;12898;50.520;12.152;2023-08-24T04:56:42;12.30;99.90
24802;DHT22;12898;50.520;12.152;2023-08-24T04:59:08;12.40;99.90
24802;DHT22;12898;50.520;12.152;2023-08-24T05:01:34;12.40;99.90
24802;DHT22;12898;50.520;12.152;2023-08-24T05:04:00;12.50;99.90
24802;DHT22;12898;50.520;12.152;2023-08-24T05:06:26;12.50;99.90
24802;DHT22;12898;50.520;12.152;2023-08-24T05:08:51;12.60;99.90
24802;DHT22;12898;50.520;12.152;2023-08-24T05:11:19;12.70;99.90
24802;DHT22;12898;50.520;12.152;2023-08-24T05:13:49;12.70;99.90
24802;DHT22;12898;50.520;12.152;2023-08-24T05:16:16;12.80;99.90
24802;DHT22;12898;50.520;12.152;2023-08-24T05:18:42;12.80;99.90
24802;DHT22;12898;50.520;12.152;2023-08-24T05:21:07;12.90;99.90
24802;DHT22;12898;50.520;12.152;2023-08-24T05:23:34;13.00;99.90
24802;DHT22;12898;50.520;12.152;2023-08-24T05:26:01;13.00;99.90
24802;DHT22;12898;50.520;12.152;2023-08-24T05:28:29;13.10;99.90
24802;DHT22;12898;50.520;12.152;2023-08-24T05:30:55;13.20;99.90
24802;DHT22;12898;50.520;12.152;2023-08-24T05:33:23;13.30;99.90
24802;DHT22;12898;50.520;12.152;2023-08-24T05:35:50;13.40;99.90
24802;DHT22;12898;50.520;12.152;2023-08-24T05:38:16;13.40;99.90
24802;DHT22;12898;50.520;12.152;2023-08-24T05:40:43;13.50;99.90
24802;DHT22;12898;50.520;12.152;2023-08-24T05:43:12;13.60;99.90
24802;DHT22;12898;50.520;12.152;2023-08-24T05:45:38;13.70;99.90
24802;DHT22;12898;50.520;12.152;2023-08-24T05:48:06;13.80;99.90
24802;DHT22;12898;50.520;12.152;2023-08-24T05:50:32;13.90;99.90
24802;DHT22;12898;50.520;12.152;2023-08-24T05:52:57;14.00;99.90
24802;DHT22;12898;50.520;12.152;2023-08-24T05:55:23;14.10;99.90
24802;DHT22;12898;50.520;12.152;2023-08-24T05:57:49;14.20;99.90
24802;DHT22;12898;50.520;12.152;2023-08-24T06:00:15;14.30;99.90
24802;DHT22;12898;50.520;12.152;2023-08-24T06:02:40;14.30;99.90
24802;DHT22;12898;50.520;12.152;2023-08-24T06:05:07;14.40;99.90
24802;DHT22;12898;50.520;12.152;2023-08-24T06:07:33;14.50;99.90
24802;DHT22;12898;50.520;12.152;2023-08-24T06:09:59;14.60;99.90
24802;DHT22;12898;50.520;12.152;2023-08-24T06:12:25;14.70;99.90
24802;DHT22;12898;50.520;12.152;2023-08-24T06:14:51;14.90;99.90
24802;DHT22;12898;50.520;12.152;2023-08-24T06:17:16;15.00;99.90
24802;DHT22;12898;50.520;12.152;2023-08-24T06:19:42;15.10;99.90
24802;DHT22;12898;50.520;12.152;2023-08-24T06:22:08;15.30;99.90
24802;DHT22;12898;50.520;12.152;2023-08-24T06:24:35;15.40;99.90
24802;DHT22;12898;50.520;12.152;2023-08-24T06:27:00;15.50;99.90
24802;DHT22;12898;50.520;12.152;2023-08-24T06:29:28;15.70;99.90
24802;DHT22;12898;50.520;12.152;2023-08-24T06:31:54;15.80;99.90
24802;DHT22;12898;50.520;12.152;2023-08-24T06:34:20;16.00;99.90
24802;DHT22;12898;50.520;12.152;2023-08-24T06:36:46;16.10;99.90
24802;DHT22;12898;50.520;12.152;2023-08-24T06:39:13;16.30;99.90
24802;DHT22;12898;50.520;12.152;2023-08-24T06:41:38;16.50;99.90
24802;DHT22;12898;50.520;12.152;2023-08-24T06:44:04;16.60;99.90
24802;DHT22;12898;50.520;12.152;2023-08-24T06:46:30;16.80;99.90
24802;DHT22;12898;50.520;12.152;2023-08-24T06:48:56;17.00;99.90
24802;DHT22;12898;50.520;12.152;2023-08-24T06:51:21;17.20;99.90
24802;DHT22;12898;50.520;12.152;2023-08-24T06:53:47;17.40;99.90
24802;DHT22;12898;50.520;12.152;2023-08-24T06:56:14;17.50;99.90
24802;DHT22;12898;50.520;12.152;2023-08-24T06:58:40;17.70;99.90
24802;DHT22;12898;50.520;12.152;2023-08-24T07:01:06;17.90;99.90
24802;DHT22;12898;50.520;12.152;2023-08-24T07:03:32;18.10;99.90
24802;DHT22;12898;50.520;12.152;2023-08-24T07:05:59;18.30;99.90
24802;DHT22;12898;50.520;12.152;2023-08-24T07:08:25;18.40;99.90
24802;DHT22;12898;50.520;12.152;2023-08-24T07:10:50;18.60;99.90
24802;DHT22;12898;50.520;12.152;2023-08-24T07:13:16;18.80;99.90
24802;DHT22;12898;50.520;12.152;2023-08-24T07:15:42;19.00;99.90
24802;DHT22;12898;50.520;12.152;2023-08-24T07:18:08;19.10;99.90
24802;DHT22;12898;50.520;12.152;2023-08-24T07:20:34;19.40;99.90
24802;DHT22;12898;50.520;12.152;2023-08-24T07:23:03;19.50;99.90
24802;DHT22;12898;50.520;12.152;2023-08-24T07:25:29;19.70;99.90
24802;DHT22;12898;50.520;12.152;2023-08-24T07:27:55;19.90;99.90
24802;DHT22;12898;50.520;12.152;2023-08-24T07:30:24;20.10;99.90
24802;DHT22;12898;50.520;12.152;2023-08-24T07:32:53;20.30;99.90
24802;DHT22;12898;50.520;12.152;2023-08-24T07:35:19;20.50;99.90
24802;DHT22;12898;50.520;12.152;2023-08-24T07:37:49;20.70;99.90
24802;DHT22;12898;50.520;12.152;2023-08-24T07:40:15;20.90;99.90
24802;DHT22;12898;50.520;12.152;2023-08-24T07:42:48;21.00;99.90
24802;DHT22;12898;50.520;12.152;2023-08-24T07:45:22;21.30;99.90
24802;DHT22;12898;50.520;12.152;2023-08-24T07:47:50;21.60;99.90
24802;DHT22;12898;50.520;12.152;2023-08-24T07:50:16;21.90;99.90
24802;DHT22;12898;50.520;12.152;2023-08-24T07:52:42;22.20;99.90
24802;DHT22;12898;50.520;12.152;2023-08-24T07:55:08;22.50;99.90
24802;DHT22;12898;50.520;12.152;2023-08-24T07:57:35;22.70;99.90
24802;DHT22;12898;50.520;12.152;2023-08-24T08:00:02;23.00;99.90
24802;DHT22;12898;50.520;12.152;2023-08-24T08:02:29;23.20;99.90
24802;DHT22;12898;50.520;12.152;2023-08-24T08:04:58;23.50;99.90
24802;DHT22;12898;50.520;12.152;2023-08-24T08:07:25;23.80;99.90
24802;DHT22;12898;50.520;12.152;2023-08-24T08:09:51;24.00;99.90
24802;DHT22;12898;50.520;12.152;2023-08-24T08:12:17;24.00;99.00
24802;DHT22;12898;50.520;12.152;2023-08-24T08:14:43;24.30;99.90
24802;DHT22;12898;50.520;12.152;2023-08-24T08:17:08;24.50;99.90
24802;DHT22;12898;50.520;12.152;2023-08-24T08:19:34;24.90;99.90
24802;DHT22;12898;50.520;12.152;2023-08-24T08:22:03;25.30;99.90
24802;DHT22;12898;50.520;12.152;2023-08-24T08:24:29;25.60;99.90
24802;DHT22;12898;50.520;12.152;2023-08-24T08:26:54;25.90;99.90
24802;DHT22;12898;50.520;12.152;2023-08-24T08:29:20;26.20;94.60
24802;DHT22;12898;50.520;12.152;2023-08-24T08:31:46;26.40;92.50
24802;DHT22;12898;50.520;12.152;2023-08-24T08:34:11;26.40;81.60
24802;DHT22;12898;50.520;12.152;2023-08-24T08:36:37;26.60;91.30
24802;DHT22;12898;50.520;12.152;2023-08-24T08:39:03;26.60;78.40
24802;DHT22;12898;50.520;12.152;2023-08-24T08:41:33;26.60;74.20
24802;DHT22;12898;50.520;12.152;2023-08-24T08:44:05;26.60;77.70
24802;DHT22;12898;50.520;12.152;2023-08-24T08:46:32;26.70;77.70
24802;DHT22;12898;50.520;12.152;2023-08-24T08:49:00;27.00;80.80
24802;DHT22;12898;50.520;12.152;2023-08-24T08:51:27;27.30;74.40
24802;DHT22;12898;50.520;12.152;2023-08-24T08:53:52;27.50;70.10
24802;DHT22;12898;50.520;12.152;2023-08-24T08:56:19;27.60;69.40
24802;DHT22;12898;50.520;12.152;2023-08-24T08:58:45;27.70;66.30
24802;DHT22;12898;50.520;12.152;2023-08-24T09:01:12;28.00;72.30
24802;DHT22;12898;50.520;12.152;2023-08-24T09:03:39;28.40;69.60
24802;DHT22;12898;50.520;12.152;2023-08-24T09:06:05;28.70;65.80
24802;DHT22;12898;50.520;12.152;2023-08-24T09:08:31;29.00;66.60
24802;DHT22;12898;50.520;12.152;2023-08-24T09:10:58;29.10;66.50
24802;DHT22;12898;50.520;12.152;2023-08-24T09:13:26;29.20;65.90
24802;DHT22;12898;50.520;12.152;2023-08-24T09:15:52;29.50;66.50
24802;DHT22;12898;50.520;12.152;2023-08-24T09:18:19;29.70;66.10
24802;DHT22;12898;50.520;12.152;2023-08-24T09:20:47;29.90;60.30
24802;DHT22;12898;50.520;12.152;2023-08-24T09:23:19;29.80;64.00
24802;DHT22;12898;50.520;12.152;2023-08-24T09:25:48;29.80;64.50
24802;DHT22;12898;50.520;12.152;2023-08-24T09:28:14;30.00;64.20
24802;DHT22;12898;50.520;12.152;2023-08-24T09:30:39;30.30;59.60
24802;DHT22;12898;50.520;12.152;2023-08-24T09:33:10;30.40;58.30
24802;DHT22;12898;50.520;12.152;2023-08-24T09:35:36;30.10;58.40
24802;DHT22;12898;50.520;12.152;2023-08-24T09:38:22;30.20;59.30
24802;DHT22;12898;50.520;12.152;2023-08-24T09:40:52;30.10;58.90
24802;DHT22;12898;50.520;12.152;2023-08-24T09:43:20;29.60;58.40
24802;DHT22;12898;50.520;12.152;2023-08-24T09:45:56;29.00;60.00
24802;DHT22;12898;50.520;12.152;2023-08-24T09:48:22;28.60;60.10
24802;DHT22;12898;50.520;12.152;2023-08-24T09:50:50;28.30;60.90
24802;DHT22;12898;50.520;12.152;2023-08-24T09:53:22;28.00;63.60
24802;DHT22;12898;50.520;12.152;2023-08-24T09:55:56;28.00;66.20
24802;DHT22;12898;50.520;12.152;2023-08-24T09:58:27;28.00;63.60
24802;DHT22;12898;50.520;12.152;2023-08-24T10:00:54;28.00;63.10
24802;DHT22;12898;50.520;12.152;2023-08-24T10:03:27;27.80;60.10
24802;DHT22;12898;50.520;12.152;2023-08-24T10:05:56;27.50;63.60
24802;DHT22;12898;50.520;12.152;2023-08-24T10:08:52;27.30;65.80
24802;DHT22;12898;50.520;12.152;2023-08-24T10:11:26;27.20;62.70
24802;DHT22;12898;50.520;12.152;2023-08-24T10:16:27;27.30;69.70
24802;DHT22;12898;50.520;12.152;2023-08-24T10:18:54;27.40;67.40
24802;DHT22;12898;50.520;12.152;2023-08-24T10:21:23;27.30;69.30
24802;DHT22;12898;50.520;12.152;2023-08-24T10:23:52;27.20;68.80
24802;DHT22;12898;50.520;12.152;2023-08-24T10:26:20;27.10;80.30
24802;DHT22;12898;50.520;12.152;2023-08-24T10:28:49;26.90;84.50
24802;DHT22;12898;50.520;12.152;2023-08-24T10:31:16;26.70;89.90
24802;DHT22;12898;50.520;12.152;2023-08-24T10:33:44;26.60;94.60
24802;DHT22;12898;50.520;12.152;2023-08-24T10:36:12;26.50;95.80
24802;DHT22;12898;50.520;12.152;2023-08-24T10:38:43;26.60;94.60
24802;DHT22;12898;50.520;12.152;2023-08-24T10:41:09;26.70;90.50
24802;DHT22;12898;50.520;12.152;2023-08-24T10:43:38;26.80;92.40
24802;DHT22;12898;50.520;12.152;2023-08-24T10:46:04;27.10;91.00
24802;DHT22;12898;50.520;12.152;2023-08-24T10:53:56;28.30;78.20
24802;DHT22;12898;50.520;12.152;2023-08-24T10:56:37;28.60;70.10
24802;DHT22;12898;50.520;12.152;2023-08-24T10:59:17;28.60;68.30
24802;DHT22;12898;50.520;12.152;2023-08-24T11:04:23;28.30;64.00
24802;DHT22;12898;50.520;12.152;2023-08-24T11:06:55;28.10;67.00
24802;DHT22;12898;50.520;12.152;2023-08-24T11:09:23;28.00;67.30
24802;DHT22;12898;50.520;12.152;2023-08-24T11:12:00;28.00;67.80
24802;DHT22;12898;50.520;12.152;2023-08-24T11:14:28;28.20;68.60
24802;DHT22;12898;50.520;12.152;2023-08-24T11:17:18;28.20;64.90
24802;DHT22;12898;50.520;12.152;2023-08-24T11:19:54;28.30;65.60
24802;DHT22;12898;50.520;12.152;2023-08-24T11:22:20;28.30;64.50
24802;DHT22;12898;50.520;12.152;2023-08-24T11:24:48;28.30;62.80
24802;DHT22;12898;50.520;12.152;2023-08-24T11:27:14;28.20;61.90
24802;DHT22;12898;50.520;12.152;2023-08-24T11:29:42;28.10;62.30
24802;DHT22;12898;50.520;12.152;2023-08-24T11:32:07;28.20;62.30
24802;DHT22;12898;50.520;12.152;2023-08-24T11:34:36;28.40;63.50
24802;DHT22;12898;50.520;12.152;2023-08-24T11:37:03;28.60;63.90
24802;DHT22;12898;50.520;12.152;2023-08-24T11:39:29;28.90;65.10
24802;DHT22;12898;50.520;12.152;2023-08-24T11:42:04;29.20;60.40
24802;DHT22;12898;50.520;12.152;2023-08-24T11:44:51;29.40;58.90
24802;DHT22;12898;50.520;12.152;2023-08-24T11:47:20;29.20;56.90
24802;DHT22;12898;50.520;12.152;2023-08-24T11:49:46;29.30;57.70
24802;DHT22;12898;50.520;12.152;2023-08-24T11:52:12;29.70;60.90
24802;DHT22;12898;50.520;12.152;2023-08-24T11:54:41;30.00;58.00
24802;DHT22;12898;50.520;12.152;2023-08-24T11:57:08;30.10;56.40
24802;DHT22;12898;50.520;12.152;2023-08-24T11:59:38;30.30;56.90
24802;DHT22;12898;50.520;12.152;2023-08-24T12:02:04;30.30;54.30
24802;DHT22;12898;50.520;12.152;2023-08-24T12:04:40;30.10;57.60
24802;DHT22;12898;50.520;12.152;2023-08-24T12:07:14;30.10;56.90
24802;DHT22;12898;50.520;12.152;2023-08-24T12:09:44;30.00;56.10
24802;DHT22;12898;50.520;12.152;2023-08-24T12:12:17;30.00;57.40
24802;DHT22;12898;50.520;12.152;2023-08-24T12:14:45;30.20;58.70
24802;DHT22;12898;50.520;12.152;2023-08-24T12:17:12;30.50;59.60
24802;DHT22;12898;50.520;12.152;2023-08-24T12:19:45;30.70;57.70
24802;DHT22;12898;50.520;12.152;2023-08-24T12:22:19;31.40;56.10
24802;DHT22;12898;50.520;12.152;2023-08-24T12:24:46;31.70;56.00
24802;DHT22;12898;50.520;12.152;2023-08-24T12:27:25;31.50;54.50
24802;DHT22;12898;50.520;12.152;2023-08-24T12:29:51;31.70;54.50
24802;DHT22;12898;50.520;12.152;2023-08-24T12:32:18;31.70;55.50
24802;DHT22;12898;50.520;12.152;2023-08-24T12:34:47;31.90;53.90
24802;DHT22;12898;50.520;12.152;2023-08-24T12:37:13;32.00;52.50
24802;DHT22;12898;50.520;12.152;2023-08-24T12:39:39;32.30;55.40
24802;DHT22;12898;50.520;12.152;2023-08-24T12:42:05;32.40;52.20
24802;DHT22;12898;50.520;12.152;2023-08-24T12:44:32;32.50;52.90
24802;DHT22;12898;50.520;12.152;2023-08-24T12:46:58;32.70;52.60
24802;DHT22;12898;50.520;12.152;2023-08-24T12:49:24;32.80;52.50
24802;DHT22;12898;50.520;12.152;2023-08-24T12:51:50;32.70;49.40
24802;DHT22;12898;50.520;12.152;2023-08-24T12:54:16;32.60;52.20
24802;DHT22;12898;50.520;12.152;2023-08-24T12:56:41;32.20;49.50
24802;DHT22;12898;50.520;12.152;2023-08-24T12:59:07;32.10;49.90
24802;DHT22;12898;50.520;12.152;2023-08-24T13:01:33;32.10;51.30
24802;DHT22;12898;50.520;12.152;2023-08-24T13:03:59;32.30;50.30
24802;DHT22;12898;50.520;12.152;2023-08-24T13:06:25;32.50;49.80
24802;DHT22;12898;50.520;12.152;2023-08-24T13:08:53;32.70;51.20
24802;DHT22;12898;50.520;12.152;2023-08-24T13:11:19;32.90;49.50
24802;DHT22;12898;50.520;12.152;2023-08-24T13:13:45;33.10;48.00
24802;DHT22;12898;50.520;12.152;2023-08-24T13:16:13;33.20;47.00
24802;DHT22;12898;50.520;12.152;2023-08-24T13:18:39;33.30;47.30
24802;DHT22;12898;50.520;12.152;2023-08-24T13:21:05;33.20;47.30
24802;DHT22;12898;50.520;12.152;2023-08-24T13:23:33;33.00;46.90
24802;DHT22;12898;50.520;12.152;2023-08-24T13:26:00;33.10;46.30
24802;DHT22;12898;50.520;12.152;2023-08-24T13:28:25;33.30;48.30
24802;DHT22;12898;50.520;12.152;2023-08-24T13:30:51;33.50;44.40
24802;DHT22;12898;50.520;12.152;2023-08-24T13:33:17;33.50;45.10
24802;DHT22;12898;50.520;12.152;2023-08-24T13:35:45;33.40;46.70
24802;DHT22;12898;50.520;12.152;2023-08-24T13:38:11;33.40;44.20
24802;DHT22;12898;50.520;12.152;2023-08-24T13:40:36;33.40;47.70
24802;DHT22;12898;50.520;12.152;2023-08-24T13:43:02;33.60;45.20
24802;DHT22;12898;50.520;12.152;2023-08-24T13:45:29;33.60;44.10
24802;DHT22;12898;50.520;12.152;2023-08-24T13:47:56;33.60;45.00
24802;DHT22;12898;50.520;12.152;2023-08-24T13:50:22;33.40;44.00
24802;DHT22;12898;50.520;12.152;2023-08-24T13:52:50;33.10;44.40
24802;DHT22;12898;50.520;12.152;2023-08-24T13:55:16;32.60;45.00
24802;DHT22;12898;50.520;12.152;2023-08-24T13:57:42;32.20;45.80
24802;DHT22;12898;50.520;12.152;2023-08-24T14:00:08;32.10;46.40
24802;DHT22;12898;50.520;12.152;2023-08-24T14:02:34;32.20;48.10
24802;DHT22;12898;50.520;12.152;2023-08-24T14:05:00;32.40;46.80
24802;DHT22;12898;50.520;12.152;2023-08-24T14:07:26;32.60;42.90
24802;DHT22;12898;50.520;12.152;2023-08-24T14:09:51;32.60;41.60
24802;DHT22;12898;50.520;12.152;2023-08-24T14:12:17;32.50;40.90
24802;DHT22;12898;50.520;12.152;2023-08-24T14:14:43;32.20;42.40
24802;DHT22;12898;50.520;12.152;2023-08-24T14:17:08;31.90;43.20
24802;DHT22;12898;50.520;12.152;2023-08-24T14:19:34;31.80;44.90
24802;DHT22;12898;50.520;12.152;2023-08-24T14:22:00;31.80;43.20
24802;DHT22;12898;50.520;12.152;2023-08-24T14:24:25;32.00;43.70
24802;DHT22;12898;50.520;12.152;2023-08-24T14:26:51;32.20;42.30
24802;DHT22;12898;50.520;12.152;2023-08-24T14:29:17;32.40;44.00
24802;DHT22;12898;50.520;12.152;2023-08-24T14:31:42;32.60;43.60
24802;DHT22;12898;50.520;12.152;2023-08-24T14:34:08;32.60;41.90
24802;DHT22;12898;50.520;12.152;2023-08-24T14:36:33;32.60;44.30
24802;DHT22;12898;50.520;12.152;2023-08-24T14:38:59;32.70;45.30
24802;DHT22;12898;50.520;12.152;2023-08-24T14:41:25;32.80;40.80
24802;DHT22;12898;50.520;12.152;2023-08-24T14:43:50;32.70;41.80
24802;DHT22;12898;50.520;12.152;2023-08-24T14:46:16;32.70;41.90
24802;DHT22;12898;50.520;12.152;2023-08-24T14:48:42;32.60;43.40
24802;DHT22;12898;50.520;12.152;2023-08-24T14:51:07;32.70;42.60
24802;DHT22;12898;50.520;12.152;2023-08-24T14:53:33;33.00;41.90
24802;DHT22;12898;50.520;12.152;2023-08-24T14:55:59;33.30;41.20
24802;DHT22;12898;50.520;12.152;2023-08-24T14:58:26;33.40;43.10
24802;DHT22;12898;50.520;12.152;2023-08-24T15:00:53;33.70;42.80
24802;DHT22;12898;50.520;12.152;2023-08-24T15:03:21;33.80;41.40
24802;DHT22;12898;50.520;12.152;2023-08-24T15:05:57;33.90;41.80
24802;DHT22;12898;50.520;12.152;2023-08-24T15:08:27;33.80;40.50
24802;DHT22;12898;50.520;12.152;2023-08-24T15:10:57;33.80;42.80
24802;DHT22;12898;50.520;12.152;2023-08-24T15:13:24;33.90;42.90
24802;DHT22;12898;50.520;12.152;2023-08-24T15:15:55;34.00;44.10
24802;DHT22;12898;50.520;12.152;2023-08-24T15:18:22;34.00;42.70
24802;DHT22;12898;50.520;12.152;2023-08-24T15:20:49;33.90;41.50
24802;DHT22;12898;50.520;12.152;2023-08-24T15:23:25;33.80;41.00
24802;DHT22;12898;50.520;12.152;2023-08-24T15:25:54;33.50;43.70
24802;DHT22;12898;50.520;12.152;2023-08-24T15:28:20;33.40;44.20
24802;DHT22;12898;50.520;12.152;2023-08-24T15:30:46;33.50;44.60